Amboy, Indiana
Current Conditions -  °F | °C
As of 12:15 PM on Thursday 27 Nov 2014 (Local Time) from KOKK Reporting Station
Overcast Overcast  
Wind Chill: 17°   Ceiling: 1300
Heat Index: 28°   Visibility: 7mi
Dew Point: 25°   Wind: 15mph
Humidity: 86%   Direction: 280°W
Pressure: 30.28"   Gusts: NA
Location:  40.6°N, 85.93°W
Report Text: KOKK 271715Z AUTO 28013KT 7SM BKN013 OVC055 M02/M04 A3028 RMK AO1
Loading
Personal Weather Stations






























Interactive Weather Map New forecast layout! Learn more

10-Day Weather Forecast

Advertisements
Track Severe Weather on mobile